sensor_id;sensor_type;location;lat;lon;timestamp;pressure;altitude;pressure_sealevel;temperature;humidity
5879;BME280;2965;42.640;23.370;2023-03-15T05:01:11;93318.72;;;5.50;91.31
5879;BME280;2965;42.640;23.370;2023-03-15T05:03:37;93323.97;;;5.56;90.28
5879;BME280;2965;42.640;23.370;2023-03-15T05:06:02;93329.63;;;5.60;89.23
5879;BME280;2965;42.640;23.370;2023-03-15T05:08:33;93330.03;;;5.78;88.57
5879;BME280;2965;42.640;23.370;2023-03-15T05:11:00;93320.28;;;5.80;91.00
5879;BME280;2965;42.640;23.370;2023-03-15T05:13:25;93327.25;;;5.80;93.18
5879;BME280;2965;42.640;23.370;2023-03-15T05:15:50;93320.34;;;5.87;94.03
5879;BME280;2965;42.640;23.370;2023-03-15T05:18:16;93322.75;;;5.89;93.22
5879;BME280;2965;42.640;23.370;2023-03-15T05:20:41;93317.31;;;5.98;92.93
5879;BME280;2965;42.640;23.370;2023-03-15T05:23:07;93321.81;;;6.11;91.25
5879;BME280;2965;42.640;23.370;2023-03-15T05:25:32;93316.91;;;6.01;93.09
5879;BME280;2965;42.640;23.370;2023-03-15T05:27:58;93324.91;;;6.00;92.95
5879;BME280;2965;42.640;23.370;2023-03-15T05:30:23;93316.50;;;5.98;89.29
5879;BME280;2965;42.640;23.370;2023-03-15T05:32:48;93310.00;;;6.09;87.97
5879;BME280;2965;42.640;23.370;2023-03-15T05:35:14;93307.84;;;6.12;94.83
5879;BME280;2965;42.640;23.370;2023-03-15T05:37:39;93309.44;;;6.13;96.59
5879;BME280;2965;42.640;23.370;2023-03-15T05:40:07;93300.56;;;6.22;96.51
5879;BME280;2965;42.640;23.370;2023-03-15T05:42:33;93306.75;;;6.21;98.17
5879;BME280;2965;42.640;23.370;2023-03-15T05:44:59;93312.84;;;6.35;97.05
5879;BME280;2965;42.640;23.370;2023-03-15T05:47:24;93301.09;;;6.39;95.81
5879;BME280;2965;42.640;23.370;2023-03-15T05:52:24;93299.19;;;6.48;88.92
5879;BME280;2965;42.640;23.370;2023-03-15T05:54:50;93305.47;;;6.60;87.46
5879;BME280;2965;42.640;23.370;2023-03-15T05:57:15;93320.66;;;6.63;85.96
5879;BME280;2965;42.640;23.370;2023-03-15T05:59:41;93316.72;;;6.67;86.36
5879;BME280;2965;42.640;23.370;2023-03-15T06:02:06;93310.78;;;6.73;86.48
5879;BME280;2965;42.640;23.370;2023-03-15T06:04:31;93309.63;;;6.82;86.64
5879;BME280;2965;42.640;23.370;2023-03-15T06:06:57;93319.72;;;6.99;86.93
5879;BME280;2965;42.640;23.370;2023-03-15T06:11:58;93303.97;;;7.42;100.00
5879;BME280;2965;42.640;23.370;2023-03-15T06:14:24;93290.34;;;8.01;100.00
5879;BME280;2965;42.640;23.370;2023-03-15T06:16:50;93292.03;;;8.35;100.00
5879;BME280;2965;42.640;23.370;2023-03-15T06:19:16;93290.25;;;8.62;100.00
5879;BME280;2965;42.640;23.370;2023-03-15T06:21:41;93298.63;;;8.11;83.91
5879;BME280;2965;42.640;23.370;2023-03-15T06:24:07;93305.81;;;8.09;91.89
5879;BME280;2965;42.640;23.370;2023-03-15T06:26:32;93302.75;;;7.92;94.46
5879;BME280;2965;42.640;23.370;2023-03-15T06:28:58;93291.84;;;8.37;100.00
5879;BME280;2965;42.640;23.370;2023-03-15T06:31:23;93287.06;;;8.80;100.00
5879;BME280;2965;42.640;23.370;2023-03-15T06:33:48;93278.22;;;8.88;84.37
5879;BME280;2965;42.640;23.370;2023-03-15T06:36:14;93292.66;;;8.97;86.63
5879;BME280;2965;42.640;23.370;2023-03-15T06:38:40;93297.91;;;8.90;78.10
5879;BME280;2965;42.640;23.370;2023-03-15T06:41:06;93293.47;;;8.71;75.21
5879;BME280;2965;42.640;23.370;2023-03-15T06:43:32;93300.31;;;8.78;75.33
5879;BME280;2965;42.640;23.370;2023-03-15T06:45:58;93289.84;;;8.58;73.55
5879;BME280;2965;42.640;23.370;2023-03-15T06:48:27;93289.88;;;8.52;73.06
5879;BME280;2965;42.640;23.370;2023-03-15T06:50:52;93293.47;;;8.57;73.56
5879;BME280;2965;42.640;23.370;2023-03-15T06:53:18;93286.56;;;8.10;73.53
5879;BME280;2965;42.640;23.370;2023-03-15T06:55:44;93292.22;;;8.20;73.88
5879;BME280;2965;42.640;23.370;2023-03-15T06:58:10;93281.59;;;8.35;74.01
5879;BME280;2965;42.640;23.370;2023-03-15T07:00:35;93269.38;;;8.16;73.29
5879;BME280;2965;42.640;23.370;2023-03-15T07:03:01;93276.59;;;8.27;72.18
5879;BME280;2965;42.640;23.370;2023-03-15T07:05:26;93282.25;;;8.37;72.00
5879;BME280;2965;42.640;23.370;2023-03-15T07:07:51;93281.59;;;8.22;71.86
5879;BME280;2965;42.640;23.370;2023-03-15T07:10:17;93283.84;;;8.45;70.31
5879;BME280;2965;42.640;23.370;2023-03-15T07:12:42;93271.00;;;8.50;68.00
5879;BME280;2965;42.640;23.370;2023-03-15T07:15:08;93271.97;;;8.35;69.64
5879;BME280;2965;42.640;23.370;2023-03-15T07:17:34;93269.03;;;8.52;69.47
5879;BME280;2965;42.640;23.370;2023-03-15T07:19:59;93277.44;;;8.67;69.49
5879;BME280;2965;42.640;23.370;2023-03-15T07:22:25;93269.19;;;8.83;69.17
5879;BME280;2965;42.640;23.370;2023-03-15T07:24:50;93277.00;;;8.97;71.63
5879;BME280;2965;42.640;23.370;2023-03-15T07:27:16;93278.22;;;9.01;69.15
5879;BME280;2965;42.640;23.370;2023-03-15T07:29:42;93271.81;;;8.83;70.00
5879;BME280;2965;42.640;23.370;2023-03-15T07:32:07;93263.59;;;8.87;68.53
5879;BME280;2965;42.640;23.370;2023-03-15T07:34:33;93265.78;;;8.50;70.57
5879;BME280;2965;42.640;23.370;2023-03-15T07:36:58;93279.41;;;8.25;70.89
5879;BME280;2965;42.640;23.370;2023-03-15T07:39:23;93286.59;;;8.23;71.09
5879;BME280;2965;42.640;23.370;2023-03-15T07:41:51;93287.63;;;8.35;71.03
5879;BME280;2965;42.640;23.370;2023-03-15T07:44:16;93273.00;;;8.34;71.22
5879;BME280;2965;42.640;23.370;2023-03-15T07:46:42;93281.03;;;8.53;69.99
5879;BME280;2965;42.640;23.370;2023-03-15T07:49:07;93281.03;;;8.79;71.35
5879;BME280;2965;42.640;23.370;2023-03-15T07:51:33;93277.03;;;8.83;68.54
5879;BME280;2965;42.640;23.370;2023-03-15T07:53:58;93267.78;;;9.01;67.59
5879;BME280;2965;42.640;23.370;2023-03-15T07:56:23;93267.34;;;9.17;69.98
5879;BME280;2965;42.640;23.370;2023-03-15T07:58:49;93270.91;;;9.29;65.31
5879;BME280;2965;42.640;23.370;2023-03-15T08:01:14;93269.75;;;9.25;64.25
5879;BME280;2965;42.640;23.370;2023-03-15T08:03:40;93268.88;;;9.38;65.18
5879;BME280;2965;42.640;23.370;2023-03-15T08:06:06;93269.69;;;9.39;66.11
5879;BME280;2965;42.640;23.370;2023-03-15T08:09:08;93264.47;;;9.39;65.08
5879;BME280;2965;42.640;23.370;2023-03-15T08:11:33;93270.91;;;9.29;64.79
5879;BME280;2965;42.640;23.370;2023-03-15T08:13:58;93256.84;;;9.44;65.38
5879;BME280;2965;42.640;23.370;2023-03-15T08:16:24;93261.78;;;9.58;65.93
5879;BME280;2965;42.640;23.370;2023-03-15T08:18:49;93250.25;;;9.79;65.80
5879;BME280;2965;42.640;23.370;2023-03-15T08:21:14;93253.97;;;9.97;62.77
5879;BME280;2965;42.640;23.370;2023-03-15T08:23:40;93242.03;;;10.07;64.21
5879;BME280;2965;42.640;23.370;2023-03-15T08:26:05;93247.47;;;9.74;63.23
5879;BME280;2965;42.640;23.370;2023-03-15T08:28:31;93246.38;;;9.89;62.49
5879;BME280;2965;42.640;23.370;2023-03-15T08:30:56;93239.13;;;9.91;65.55
5879;BME280;2965;42.640;23.370;2023-03-15T08:33:21;93232.69;;;9.55;61.60
5879;BME280;2965;42.640;23.370;2023-03-15T08:35:51;93244.69;;;9.63;62.92
5879;BME280;2965;42.640;23.370;2023-03-15T08:38:17;93249.66;;;10.09;61.02
5879;BME280;2965;42.640;23.370;2023-03-15T08:40:42;93247.50;;;10.38;59.94
5879;BME280;2965;42.640;23.370;2023-03-15T08:43:08;93245.81;;;10.50;59.72
5879;BME280;2965;42.640;23.370;2023-03-15T08:45:34;93230.25;;;10.30;60.13
5879;BME280;2965;42.640;23.370;2023-03-15T08:47:59;93230.13;;;10.50;59.27
5879;BME280;2965;42.640;23.370;2023-03-15T08:50:27;93233.72;;;10.49;60.30
5879;BME280;2965;42.640;23.370;2023-03-15T08:52:52;93248.97;;;10.58;59.80
5879;BME280;2965;42.640;23.370;2023-03-15T08:55:18;93240.28;;;10.58;62.57
5879;BME280;2965;42.640;23.370;2023-03-15T08:57:43;93243.78;;;10.52;59.30
5879;BME280;2965;42.640;23.370;2023-03-15T09:00:10;93252.91;;;10.68;60.16
5879;BME280;2965;42.640;23.370;2023-03-15T09:02:42;93244.94;;;10.56;58.93
5879;BME280;2965;42.640;23.370;2023-03-15T09:05:07;93247.47;;;10.69;59.75
5879;BME280;2965;42.640;23.370;2023-03-15T09:07:37;93249.19;;;11.19;61.60
5879;BME280;2965;42.640;23.370;2023-03-15T09:10:03;93244.63;;;11.32;60.49
5879;BME280;2965;42.640;23.370;2023-03-15T09:12:29;93250.59;;;11.03;60.37
5879;BME280;2965;42.640;23.370;2023-03-15T09:14:55;93251.13;;;10.86;60.79
5879;BME280;2965;42.640;23.370;2023-03-15T09:17:20;93252.19;;;11.04;61.04
5879;BME280;2965;42.640;23.370;2023-03-15T09:19:45;93241.59;;;11.17;61.64
5879;BME280;2965;42.640;23.370;2023-03-15T09:22:11;93235.59;;;11.10;58.95
5879;BME280;2965;42.640;23.370;2023-03-15T09:24:37;93253.63;;;11.18;59.98
5879;BME280;2965;42.640;23.370;2023-03-15T09:27:02;93247.38;;;11.19;59.23
5879;BME280;2965;42.640;23.370;2023-03-15T09:29:27;93244.84;;;11.13;59.15
5879;BME280;2965;42.640;23.370;2023-03-15T09:31:53;93236.78;;;11.14;59.27
5879;BME280;2965;42.640;23.370;2023-03-15T09:34:19;93233.88;;;11.22;59.01
5879;BME280;2965;42.640;23.370;2023-03-15T09:36:44;93227.59;;;11.42;58.64
5879;BME280;2965;42.640;23.370;2023-03-15T09:39:09;93236.75;;;11.51;57.76
5879;BME280;2965;42.640;23.370;2023-03-15T09:41:46;93224.97;;;11.78;59.57
5879;BME280;2965;42.640;23.370;2023-03-15T09:44:17;93223.66;;;11.51;60.53
5879;BME280;2965;42.640;23.370;2023-03-15T09:49:45;93215.38;;;11.54;59.32
5879;BME280;2965;42.640;23.370;2023-03-15T09:54:51;93207.53;;;11.35;58.93
5879;BME280;2965;42.640;23.370;2023-03-15T09:57:29;93215.75;;;11.57;58.50
5879;BME280;2965;42.640;23.370;2023-03-15T10:00:01;93200.66;;;11.71;58.90
5879;BME280;2965;42.640;23.370;2023-03-15T10:02:30;93200.09;;;11.51;58.72
5879;BME280;2965;42.640;23.370;2023-03-15T10:05:04;93210.16;;;11.17;58.24
5879;BME280;2965;42.640;23.370;2023-03-15T10:07:31;93212.50;;;11.07;58.46
5879;BME280;2965;42.640;23.370;2023-03-15T10:09:57;93216.84;;;10.95;59.89
5879;BME280;2965;42.640;23.370;2023-03-15T10:12:35;93209.88;;;11.07;60.95
5879;BME280;2965;42.640;23.370;2023-03-15T10:20:28;93212.84;;;11.77;56.41
5879;BME280;2965;42.640;23.370;2023-03-15T10:25:56;93206.53;;;12.15;59.43
5879;BME280;2965;42.640;23.370;2023-03-15T10:28:28;93209.53;;;12.30;58.14
5879;BME280;2965;42.640;23.370;2023-03-15T10:30:58;93194.81;;;12.18;56.19
5879;BME280;2965;42.640;23.370;2023-03-15T10:33:29;93199.72;;;12.14;55.32
5879;BME280;2965;42.640;23.370;2023-03-15T10:35:59;93199.59;;;12.21;55.97
5879;BME280;2965;42.640;23.370;2023-03-15T10:38:26;93204.63;;;12.22;55.20
5879;BME280;2965;42.640;23.370;2023-03-15T10:40:54;93209.72;;;12.17;54.67
5879;BME280;2965;42.640;23.370;2023-03-15T10:43:32;93208.50;;;11.90;55.92
5879;BME280;2965;42.640;23.370;2023-03-15T10:46:12;93198.56;;;12.10;55.08
5879;BME280;2965;42.640;23.370;2023-03-15T10:48:56;93195.81;;;12.05;55.13
5879;BME280;2965;42.640;23.370;2023-03-15T10:51:32;93191.09;;;11.95;54.95
5879;BME280;2965;42.640;23.370;2023-03-15T10:54:06;93194.53;;;11.77;55.39
5879;BME280;2965;42.640;23.370;2023-03-15T10:56:47;93198.03;;;11.90;57.04
5879;BME280;2965;42.640;23.370;2023-03-15T10:59:25;93194.53;;;11.77;56.15
5879;BME280;2965;42.640;23.370;2023-03-15T11:01:53;93199.75;;;11.77;57.06
5879;BME280;2965;42.640;23.370;2023-03-15T11:04:21;93194.78;;;11.57;57.33
5879;BME280;2965;42.640;23.370;2023-03-15T11:07:00;93188.72;;;11.27;56.75
5879;BME280;2965;42.640;23.370;2023-03-15T11:09:38;93182.53;;;11.21;57.13
5879;BME280;2965;42.640;23.370;2023-03-15T11:12:07;93190.09;;;11.48;57.22
5879;BME280;2965;42.640;23.370;2023-03-15T11:14:42;93182.81;;;11.31;58.99
5879;BME280;2965;42.640;23.370;2023-03-15T11:17:16;93178.44;;;11.44;58.96
5879;BME280;2965;42.640;23.370;2023-03-15T11:19:50;93181.03;;;11.62;58.94
5879;BME280;2965;42.640;23.370;2023-03-15T11:22:17;93176.22;;;11.59;56.09
5879;BME280;2965;42.640;23.370;2023-03-15T11:24:44;93182.78;;;11.50;57.24
5879;BME280;2965;42.640;23.370;2023-03-15T11:27:15;93183.69;;;11.44;57.53
5879;BME280;2965;42.640;23.370;2023-03-15T11:29:48;93191.69;;;11.49;58.93
5879;BME280;2965;42.640;23.370;2023-03-15T11:32:25;93192.25;;;11.69;58.95
5879;BME280;2965;42.640;23.370;2023-03-15T11:37:31;93171.63;;;12.03;56.58
5879;BME280;2965;42.640;23.370;2023-03-15T11:40:32;93175.72;;;11.99;56.49
5879;BME280;2965;42.640;23.370;2023-03-15T11:43:09;93178.25;;;11.75;57.62
5879;BME280;2965;42.640;23.370;2023-03-15T11:45:43;93174.00;;;11.93;57.90
5879;BME280;2965;42.640;23.370;2023-03-15T11:48:37;93175.63;;;12.05;55.41
5879;BME280;2965;42.640;23.370;2023-03-15T11:51:06;93162.75;;;12.04;56.88
5879;BME280;2965;42.640;23.370;2023-03-15T11:53:37;93167.56;;;12.30;58.76
5879;BME280;2965;42.640;23.370;2023-03-15T11:56:27;93167.66;;;12.00;57.07
5879;BME280;2965;42.640;23.370;2023-03-15T11:59:08;93170.47;;;11.99;57.03
5879;BME280;2965;42.640;23.370;2023-03-15T12:01:41;93174.38;;;12.08;55.97
5879;BME280;2965;42.640;23.370;2023-03-15T12:07:04;93154.88;;;11.92;54.96
5879;BME280;2965;42.640;23.370;2023-03-15T12:11:57;93141.63;;;12.41;54.78
5879;BME280;2965;42.640;23.370;2023-03-15T12:14:27;93146.84;;;12.41;56.34
5879;BME280;2965;42.640;23.370;2023-03-15T12:20:06;93140.25;;;12.26;55.65
5879;BME280;2965;42.640;23.370;2023-03-15T12:22:40;93134.84;;;12.09;54.64
5879;BME280;2965;42.640;23.370;2023-03-15T12:25:33;93139.09;;;12.22;53.89
5879;BME280;2965;42.640;23.370;2023-03-15T12:28:04;93148.78;;;12.33;53.75
5879;BME280;2965;42.640;23.370;2023-03-15T12:30:39;93138.88;;;12.35;56.01
5879;BME280;2965;42.640;23.370;2023-03-15T12:33:13;93126.19;;;12.21;54.96
5879;BME280;2965;42.640;23.370;2023-03-15T12:35:40;93129.59;;;12.09;55.02
5879;BME280;2965;42.640;23.370;2023-03-15T12:38:15;93135.56;;;12.28;54.76
5879;BME280;2965;42.640;23.370;2023-03-15T12:40:51;93137.94;;;12.18;54.36
5879;BME280;2965;42.640;23.370;2023-03-15T12:43:40;93131.56;;;12.14;55.09
5879;BME280;2965;42.640;23.370;2023-03-15T13:28:26;93123.59;;;12.32;56.04
5879;BME280;2965;42.640;23.370;2023-03-15T13:30:54;93127.72;;;12.40;56.68
5879;BME280;2965;42.640;23.370;2023-03-15T13:33:28;93122.91;;;12.49;55.69
5879;BME280;2965;42.640;23.370;2023-03-15T13:36:04;93125.06;;;12.52;57.10
5879;BME280;2965;42.640;23.370;2023-03-15T13:38:37;93135.78;;;12.50;55.51
5879;BME280;2965;42.640;23.370;2023-03-15T13:41:05;93125.53;;;12.49;55.76
5879;BME280;2965;42.640;23.370;2023-03-15T13:43:39;93128.84;;;12.56;57.21
5879;BME280;2965;42.640;23.370;2023-03-15T13:46:06;93121.06;;;12.61;56.66
5879;BME280;2965;42.640;23.370;2023-03-15T13:48:35;93121.88;;;12.50;54.29
5879;BME280;2965;42.640;23.370;2023-03-15T13:53:37;93128.28;;;12.54;53.45
5879;BME280;2965;42.640;23.370;2023-03-15T13:56:06;93131.34;;;12.51;54.19
5879;BME280;2965;42.640;23.370;2023-03-15T13:58:32;93142.16;;;12.43;54.04
5879;BME280;2965;42.640;23.370;2023-03-15T14:01:00;93146.38;;;12.44;53.51
5879;BME280;2965;42.640;23.370;2023-03-15T14:03:28;93132.50;;;12.67;53.59
5879;BME280;2965;42.640;23.370;2023-03-15T14:05:55;93131.00;;;12.71;54.81
5879;BME280;2965;42.640;23.370;2023-03-15T14:08:31;93127.25;;;12.55;55.06
5879;BME280;2965;42.640;23.370;2023-03-15T14:11:01;93131.59;;;12.49;54.18
5879;BME280;2965;42.640;23.370;2023-03-15T14:13:33;93127.34;;;12.60;54.38
5879;BME280;2965;42.640;23.370;2023-03-15T14:16:11;93122.44;;;12.52;53.42
5879;BME280;2965;42.640;23.370;2023-03-15T14:18:40;93124.06;;;12.53;53.37
5879;BME280;2965;42.640;23.370;2023-03-15T14:21:16;93130.41;;;12.57;53.29
5879;BME280;2965;42.640;23.370;2023-03-15T14:23:45;93127.03;;;12.45;52.86
5879;BME280;2965;42.640;23.370;2023-03-15T14:26:20;93127.56;;;12.47;53.21
5879;BME280;2965;42.640;23.370;2023-03-15T14:29:11;93123.16;;;12.35;54.33
5879;BME280;2965;42.640;23.370;2023-03-15T14:31:44;93124.50;;;12.50;54.24
5879;BME280;2965;42.640;23.370;2023-03-15T14:34:34;93123.13;;;12.59;54.44
5879;BME280;2965;42.640;23.370;2023-03-15T14:37:05;93116.50;;;12.68;53.94
5879;BME280;2965;42.640;23.370;2023-03-15T14:41:59;93125.41;;;12.67;54.35
5879;BME280;2965;42.640;23.370;2023-03-15T14:44:25;93122.34;;;12.58;55.56
5879;BME280;2965;42.640;23.370;2023-03-15T14:46:50;93119.03;;;12.63;55.85
5879;BME280;2965;42.640;23.370;2023-03-15T14:49:24;93125.88;;;12.41;57.84
5879;BME280;2965;42.640;23.370;2023-03-15T14:51:54;93118.34;;;12.56;59.89
5879;BME280;2965;42.640;23.370;2023-03-15T14:54:23;93120.63;;;12.64;60.50
5879;BME280;2965;42.640;23.370;2023-03-15T14:56:48;93123.81;;;12.43;62.33
5879;BME280;2965;42.640;23.370;2023-03-15T14:59:13;93120.81;;;12.04;61.99
5879;BME280;2965;42.640;23.370;2023-03-15T15:01:41;93121.59;;;11.93;61.63
5879;BME280;2965;42.640;23.370;2023-03-15T15:04:10;93114.13;;;11.78;62.80
5879;BME280;2965;42.640;23.370;2023-03-15T15:06:36;93114.81;;;11.73;63.07
5879;BME280;2965;42.640;23.370;2023-03-15T15:09:03;93122.06;;;11.71;63.99
5879;BME280;2965;42.640;23.370;2023-03-15T15:11:29;93116.84;;;11.71;64.37
5879;BME280;2965;42.640;23.370;2023-03-15T15:13:55;93116.47;;;11.56;65.03
5879;BME280;2965;42.640;23.370;2023-03-15T15:16:21;93119.66;;;11.58;65.45
5879;BME280;2965;42.640;23.370;2023-03-15T15:18:47;93119.28;;;11.54;65.68
5879;BME280;2965;42.640;23.370;2023-03-15T15:23:42;93133.34;;;11.42;66.39
5879;BME280;2965;42.640;23.370;2023-03-15T15:26:17;93131.31;;;11.44;66.53
5879;BME280;2965;42.640;23.370;2023-03-15T15:28:42;93133.22;;;11.36;67.56
5879;BME280;2965;42.640;23.370;2023-03-15T15:31:14;93140.72;;;11.33;66.85
5879;BME280;2965;42.640;23.370;2023-03-15T15:33:40;93133.97;;;11.25;66.88
5879;BME280;2965;42.640;23.370;2023-03-15T15:36:11;93141.41;;;11.10;67.78
5879;BME280;2965;42.640;23.370;2023-03-15T15:38:38;93144.00;;;11.10;69.17
5879;BME280;2965;42.640;23.370;2023-03-15T15:41:08;93141.53;;;10.97;69.69
5879;BME280;2965;42.640;23.370;2023-03-15T15:43:35;93146.06;;;10.90;70.81
5879;BME280;2965;42.640;23.370;2023-03-15T15:46:00;93156.06;;;10.93;70.46
5879;BME280;2965;42.640;23.370;2023-03-15T15:48:26;93158.25;;;11.14;70.56
5879;BME280;2965;42.640;23.370;2023-03-15T15:50:51;93152.75;;;11.04;70.71
5879;BME280;2965;42.640;23.370;2023-03-15T15:53:16;93161.31;;;10.93;70.57
5879;BME280;2965;42.640;23.370;2023-03-15T15:55:42;93165.59;;;11.05;70.23
5879;BME280;2965;42.640;23.370;2023-03-15T15:58:08;93164.06;;;10.98;70.77
5879;BME280;2965;42.640;23.370;2023-03-15T16:00:35;93166.84;;;11.03;70.38
5879;BME280;2965;42.640;23.370;2023-03-15T16:03:00;93166.75;;;11.09;69.83
5879;BME280;2965;42.640;23.370;2023-03-15T16:05:28;93168.31;;;10.99;70.93
5879;BME280;2965;42.640;23.370;2023-03-15T16:07:56;93173.81;;;10.91;71.81
5879;BME280;2965;42.640;23.370;2023-03-15T16:10:26;93170.97;;;10.92;71.83
5879;BME280;2965;42.640;23.370;2023-03-15T16:12:54;93176.72;;;10.82;72.40
5879;BME280;2965;42.640;23.370;2023-03-15T16:15:21;93177.88;;;10.68;72.76
5879;BME280;2965;42.640;23.370;2023-03-15T16:17:46;93181.44;;;10.92;72.90
5879;BME280;2965;42.640;23.370;2023-03-15T16:20:13;93176.88;;;11.06;72.58
5879;BME280;2965;42.640;23.370;2023-03-15T16:22:48;93188.50;;;11.10;72.10
5879;BME280;2965;42.640;23.370;2023-03-15T16:25:27;93180.34;;;11.18;72.37
5879;BME280;2965;42.640;23.370;2023-03-15T16:27:54;93180.50;;;11.05;75.69
5879;BME280;2965;42.640;23.370;2023-03-15T16:30:23;93182.06;;;10.69;79.22
5879;BME280;2965;42.640;23.370;2023-03-15T16:32:49;93193.69;;;10.55;83.03
5879;BME280;2965;42.640;23.370;2023-03-15T16:35:20;93191.31;;;10.72;83.20
5879;BME280;2965;42.640;23.370;2023-03-15T16:37:46;93193.28;;;10.76;85.13
5879;BME280;2965;42.640;23.370;2023-03-15T16:40:24;93201.13;;;10.76;84.50
5879;BME280;2965;42.640;23.370;2023-03-15T16:42:50;93202.88;;;10.82;84.98
5879;BME280;2965;42.640;23.370;2023-03-15T16:45:16;93201.66;;;10.85;85.44
5879;BME280;2965;42.640;23.370;2023-03-15T16:47:41;93203.28;;;10.79;85.59
5879;BME280;2965;42.640;23.370;2023-03-15T16:50:07;93209.56;;;10.78;86.19
5879;BME280;2965;42.640;23.370;2023-03-15T16:52:32;93209.06;;;10.88;85.63
5879;BME280;2965;42.640;23.370;2023-03-15T16:54:59;93221.47;;;10.93;84.28
5879;BME280;2965;42.640;23.370;2023-03-15T18:42:44;93299.91;;;8.68;100.00
5879;BME280;2965;42.640;23.370;2023-03-15T18:45:21;93301.91;;;8.66;100.00
5879;BME280;2965;42.640;23.370;2023-03-15T18:47:47;93304.69;;;8.58;100.00
5879;BME280;2965;42.640;23.370;2023-03-15T18:50:14;93305.91;;;8.62;100.00
5879;BME280;2965;42.640;23.370;2023-03-15T18:52:40;93310.34;;;8.68;100.00
5879;BME280;2965;42.640;23.370;2023-03-15T18:55:06;93311.34;;;8.74;100.00
5879;BME280;2965;42.640;23.370;2023-03-15T18:57:33;93319.38;;;8.59;100.00
5879;BME280;2965;42.640;23.370;2023-03-15T18:59:58;93316.34;;;8.55;100.00
5879;BME280;2965;42.640;23.370;2023-03-15T19:02:23;93321.94;;;8.52;100.00
5879;BME280;2965;42.640;23.370;2023-03-15T19:04:49;93320.31;;;8.45;100.00
5879;BME280;2965;42.640;23.370;2023-03-15T19:07:15;93319.13;;;8.54;100.00
5879;BME280;2965;42.640;23.370;2023-03-15T19:09:40;93319.97;;;8.68;100.00
5879;BME280;2965;42.640;23.370;2023-03-15T19:12:05;93330.78;;;8.71;100.00
5879;BME280;2965;42.640;23.370;2023-03-15T19:14:31;93332.78;;;8.69;100.00
5879;BME280;2965;42.640;23.370;2023-03-15T19:16:56;93321.56;;;8.69;100.00
5879;BME280;2965;42.640;23.370;2023-03-15T19:19:22;93332.16;;;8.67;100.00
5879;BME280;2965;42.640;23.370;2023-03-15T19:21:48;93330.78;;;8.65;100.00
5879;BME280;2965;42.640;23.370;2023-03-15T19:24:13;93328.78;;;8.67;100.00
5879;BME280;2965;42.640;23.370;2023-03-15T19:26:38;93342.81;;;8.66;100.00
5879;BME280;2965;42.640;23.370;2023-03-15T19:29:04;93341.41;;;8.76;100.00
5879;BME280;2965;42.640;23.370;2023-03-15T19:31:30;93342.81;;;8.92;100.00
5879;BME280;2965;42.640;23.370;2023-03-15T19:33:55;93340.81;;;9.01;100.00
5879;BME280;2965;42.640;23.370;2023-03-15T19:36:21;93347.44;;;8.77;100.00
5879;BME280;2965;42.640;23.370;2023-03-15T19:38:46;93345.22;;;8.80;100.00
5879;BME280;2965;42.640;23.370;2023-03-15T19:41:12;93361.28;;;8.64;100.00
5879;BME280;2965;42.640;23.370;2023-03-15T19:43:38;93355.63;;;8.54;100.00
5879;BME280;2965;42.640;23.370;2023-03-15T19:46:06;93364.16;;;8.15;100.00
5879;BME280;2965;42.640;23.370;2023-03-15T19:48:32;93362.13;;;8.23;100.00
5879;BME280;2965;42.640;23.370;2023-03-15T19:50:58;93365.19;;;8.33;100.00
5879;BME280;2965;42.640;23.370;2023-03-15T19:53:24;93366.84;;;8.48;100.00
5879;BME280;2965;42.640;23.370;2023-03-15T19:55:49;93362.44;;;8.42;100.00
5879;BME280;2965;42.640;23.370;2023-03-15T19:58:15;93368.06;;;8.52;100.00
5879;BME280;2965;42.640;23.370;2023-03-15T20:00:40;93362.03;;;8.58;100.00
5879;BME280;2965;42.640;23.370;2023-03-15T20:03:06;93369.28;;;8.69;100.00
5879;BME280;2965;42.640;23.370;2023-03-15T20:05:33;93368.69;;;8.74;100.00
5879;BME280;2965;42.640;23.370;2023-03-15T20:07:58;93374.88;;;8.66;100.00
5879;BME280;2965;42.640;23.370;2023-03-15T20:10:24;93376.28;;;8.62;100.00
5879;BME280;2965;42.640;23.370;2023-03-15T20:12:50;93383.31;;;8.75;100.00
5879;BME280;2965;42.640;23.370;2023-03-15T20:15:17;93373.72;;;8.82;100.00
5879;BME280;2965;42.640;23.370;2023-03-15T20:17:43;93379.34;;;8.72;100.00
5879;BME280;2965;42.640;23.370;2023-03-15T20:20:09;93376.13;;;8.77;100.00
5879;BME280;2965;42.640;23.370;2023-03-15T20:22:38;93381.34;;;8.83;100.00
5879;BME280;2965;42.640;23.370;2023-03-15T20:25:04;93397.38;;;8.74;100.00
5879;BME280;2965;42.640;23.370;2023-03-15T20:27:34;93380.19;;;8.25;100.00
5879;BME280;2965;42.640;23.370;2023-03-15T20:29:59;93383.47;;;7.92;100.00
5879;BME280;2965;42.640;23.370;2023-03-15T20:32:27;93379.72;;;8.01;100.00
5879;BME280;2965;42.640;23.370;2023-03-15T20:34:52;93384.34;;;8.06;100.00
5879;BME280;2965;42.640;23.370;2023-03-15T20:37:27;93374.91;;;8.05;100.00
5879;BME280;2965;42.640;23.370;2023-03-15T20:39:53;93379.44;;;7.83;100.00
5879;BME280;2965;42.640;23.370;2023-03-15T20:42:20;93376.59;;;7.71;100.00
5879;BME280;2965;42.640;23.370;2023-03-15T20:44:46;93386.94;;;7.58;100.00
5879;BME280;2965;42.640;23.370;2023-03-15T20:47:11;93377.28;;;7.52;100.00
5879;BME280;2965;42.640;23.370;2023-03-15T20:49:37;93380.28;;;7.21;100.00
5879;BME280;2965;42.640;23.370;2023-03-15T20:52:02;93374.28;;;7.20;100.00
5879;BME280;2965;42.640;23.370;2023-03-15T20:54:29;93379.38;;;7.00;100.00
5879;BME280;2965;42.640;23.370;2023-03-15T20:56:54;93366.44;;;6.86;100.00
5879;BME280;2965;42.640;23.370;2023-03-15T20:59:20;93380.44;;;6.85;100.00
5879;BME280;2965;42.640;23.370;2023-03-15T21:01:47;93380.31;;;6.71;100.00
5879;BME280;2965;42.640;23.370;2023-03-15T21:04:12;93378.47;;;6.65;100.00
5879;BME280;2965;42.640;23.370;2023-03-15T21:06:38;93385.28;;;6.45;100.00
5879;BME280;2965;42.640;23.370;2023-03-15T21:09:03;93383.66;;;6.44;100.00
5879;BME280;2965;42.640;23.370;2023-03-15T21:11:30;93389.19;;;6.34;100.00
5879;BME280;2965;42.640;23.370;2023-03-15T21:13:55;93385.91;;;6.11;100.00
5879;BME280;2965;42.640;23.370;2023-03-15T21:16:22;93393.56;;;5.82;100.00
5879;BME280;2965;42.640;23.370;2023-03-15T21:18:48;93389.19;;;5.68;100.00
5879;BME280;2965;42.640;23.370;2023-03-15T21:21:16;93397.41;;;5.57;100.00
5879;BME280;2965;42.640;23.370;2023-03-15T21:23:42;93400.81;;;5.43;100.00